Time;durP1;ratioP1;P1;durP2;ratioP2;P2;SDS_P1;SDS_P2;PMS_P1;PMS_P2;Temp;Humidity;BMP_temperature;BMP_pressure;BME280_temperature;BME280_humidity;BME280_pressure;Samples;Min_cycle;Max_cycle;Signal;HPM_P1;HPM_P2
2023/07/07 00:01:02;;;;;;;17.35;6.88;;;;;;;-144.61;100.00;62523.38;5087677;28;20267;-72
2023/07/07 00:03:28;;;;;;;13.02;7.57;;;;;;;-144.61;100.00;62523.38;5088394;28;20234;-71
2023/07/07 00:05:55;;;;;;;12.57;8.05;;;;;;;-144.61;100.00;62523.38;5099993;28;20293;-71
2023/07/07 00:08:22;;;;;;;13.50;8.32;;;;;;;-144.61;100.00;62523.38;5068718;28;20273;-71
2023/07/07 00:10:50;;;;;;;19.80;7.47;;;;;;;-144.61;100.00;62523.38;5068505;28;20207;-71
2023/07/07 00:13:17;;;;;;;19.02;7.70;;;;;;;-144.61;100.00;62523.38;5068193;28;20222;-71
2023/07/07 00:15:45;;;;;;;14.85;7.65;;;;;;;-144.61;100.00;62523.38;5068337;28;20207;-70
2023/07/07 00:18:14;;;;;;;12.55;7.03;;;;;;;-144.61;100.00;62523.38;5078104;28;20951;-71
2023/07/07 00:20:41;;;;;;;10.82;7.07;;;;;;;-144.61;100.00;62523.38;5088630;28;20263;-70
2023/07/07 00:23:07;;;;;;;9.25;6.38;;;;;;;-144.61;100.00;62523.38;5099077;28;20725;-72
2023/07/07 00:25:34;;;;;;;10.43;6.45;;;;;;;-144.61;100.00;62523.38;5073855;28;20573;-72
2023/07/07 00:28:02;;;;;;;8.55;6.03;;;;;;;-144.61;100.00;62523.38;5068675;28;20199;-72
2023/07/07 00:30:29;;;;;;;11.00;7.00;;;;;;;-144.61;100.00;62523.38;5069983;28;20203;-72
2023/07/07 00:32:56;;;;;;;10.65;6.70;;;;;;;-144.61;100.00;62523.38;5071287;28;20256;-72
2023/07/07 00:35:22;;;;;;;13.90;7.45;;;;;;;-144.61;100.00;62523.38;5072137;28;20268;-72
2023/07/07 00:37:49;;;;;;;12.63;7.05;;;;;;;-144.61;100.00;62523.38;5083184;28;20351;-70
2023/07/07 00:40:18;;;;;;;9.52;6.38;;;;;;;-144.61;100.00;62523.38;5096276;28;20212;-70
2023/07/07 00:42:45;;;;;;;12.93;7.10;;;;;;;-144.61;100.00;62523.38;5088207;28;20253;-71
2023/07/07 00:45:16;;;;;;;9.52;7.35;;;;;;;-144.61;100.00;62523.38;5078169;28;20226;-71
2023/07/07 00:47:48;;;;;;;12.68;6.53;;;;;;;-144.61;100.00;62523.38;5091097;28;20629;-71
2023/07/07 00:50:17;;;;;;;13.63;6.97;;;;;;;-144.61;100.00;62523.38;5090632;28;20542;-71
2023/07/07 00:52:45;;;;;;;12.68;6.55;;;;;;;-144.61;100.00;62523.38;5091216;28;20287;-71
2023/07/07 00:55:18;;;;;;;15.07;7.30;;;;;;;-144.61;100.00;62523.38;5091614;28;20299;-71
2023/07/07 00:57:45;;;;;;;11.73;7.05;;;;;;;-144.61;100.00;62523.38;5091846;28;20194;-71
2023/07/07 01:00:15;;;;;;;10.65;7.40;;;;;;;-144.61;100.00;62523.38;5082507;28;20203;-71
2023/07/07 01:02:47;;;;;;;11.38;7.20;;;;;;;-144.61;100.00;62523.38;5071131;28;20673;-71
2023/07/07 01:05:14;;;;;;;12.80;7.80;;;;;;;-144.61;100.00;62523.38;5070903;28;20658;-71
2023/07/07 01:07:45;;;;;;;16.83;7.90;;;;;;;-144.61;100.00;62523.38;5070239;28;20579;-70
2023/07/07 01:10:12;;;;;;;12.95;7.45;;;;;;;-144.61;100.00;62523.38;5070331;28;20211;-70
2023/07/07 01:12:39;;;;;;;16.02;7.70;;;;;;;-144.61;100.00;62523.38;5070321;28;20276;-70
2023/07/07 01:15:07;;;;;;;16.33;7.75;;;;;;;-144.61;100.00;62523.38;5071272;28;20207;-71
2023/07/07 01:17:49;;;;;;;11.70;7.97;;;;;;;-144.61;100.00;62523.38;5070935;28;20233;-71
2023/07/07 01:20:23;;;;;;;12.20;7.15;;;;;;;-144.61;100.00;62523.38;5071096;28;20972;-70
2023/07/07 01:23:22;;;;;;;11.40;8.15;;;;;;;-144.61;100.00;62523.38;5091207;28;20550;-71
2023/07/07 01:26:22;;;;;;;11.50;7.93;;;;;;;-144.61;100.00;62523.38;5091250;28;20210;-70
2023/07/07 01:29:29;;;;;;;10.93;7.35;;;;;;;-144.61;100.00;62523.38;5079364;28;20206;-70
2023/07/07 01:32:01;;;;;;;15.65;7.70;;;;;;;-144.61;100.00;62523.38;5088382;28;20263;-70
2023/07/07 01:34:28;;;;;;;13.48;7.38;;;;;;;-144.61;100.00;62523.38;5090749;28;20210;-71
2023/07/07 01:36:55;;;;;;;12.75;8.07;;;;;;;-144.61;100.00;62523.38;5094743;28;20213;-71
2023/07/07 01:39:23;;;;;;;12.52;7.35;;;;;;;-144.61;100.00;62523.38;5089127;28;20203;-71
2023/07/07 01:41:57;;;;;;;15.38;8.00;;;;;;;-144.61;100.00;62523.38;5069920;28;20207;-72
2023/07/07 01:44:33;;;;;;;12.10;7.28;;;;;;;-144.61;100.00;62523.38;5082229;28;20242;-71
2023/07/07 01:47:10;;;;;;;15.75;7.95;;;;;;;-144.61;100.00;62523.38;5085834;28;20221;-71
2023/07/07 01:49:42;;;;;;;13.35;7.45;;;;;;;-144.61;100.00;62523.38;5098006;28;20194;-70
2023/07/07 01:52:14;;;;;;;15.57;8.02;;;;;;;-144.61;100.00;62523.38;5091373;28;20206;-72
2023/07/07 01:54:46;;;;;;;14.60;7.78;;;;;;;-144.61;100.00;62523.38;5079315;28;20648;-71
2023/07/07 01:57:14;;;;;;;11.20;7.78;;;;;;;-144.61;100.00;62523.38;5099560;28;20703;-71
2023/07/07 01:59:43;;;;;;;11.60;7.28;;;;;;;-144.61;100.00;62523.38;5107358;28;20288;-71
2023/07/07 02:02:11;;;;;;;13.30;7.97;;;;;;;-144.61;100.00;62523.38;5099181;28;20203;-71
2023/07/07 02:04:38;;;;;;;15.60;7.90;;;;;;;-144.61;100.00;62523.38;5103779;28;20263;-71
2023/07/07 02:07:05;;;;;;;11.07;8.05;;;;;;;-144.61;100.00;62523.38;5102199;28;20632;-71
2023/07/07 02:09:33;;;;;;;13.93;9.00;;;;;;;-144.61;100.00;62523.38;5092778;28;20516;-71
2023/07/07 02:12:00;;;;;;;15.85;9.35;;;;;;;-144.61;100.00;62523.38;5093371;28;20195;-71
2023/07/07 02:14:27;;;;;;;13.70;8.27;;;;;;;-144.61;100.00;62523.38;5097383;28;20266;-71
2023/07/07 02:16:53;;;;;;;13.18;9.07;;;;;;;-144.61;100.00;62523.38;5096906;28;20202;-71
2023/07/07 02:19:21;;;;;;;11.80;8.48;;;;;;;-144.61;100.00;62523.38;5100576;28;20205;-72
2023/07/07 02:21:48;;;;;;;14.55;10.18;;;;;;;-144.61;100.00;62523.38;5093589;28;20245;-71
2023/07/07 02:24:15;;;;;;;14.40;9.75;;;;;;;-144.61;100.00;62523.38;5110421;28;20193;-70
2023/07/07 02:26:42;;;;;;;14.15;9.23;;;;;;;-144.61;100.00;62523.38;5095110;28;20275;-70
2023/07/07 02:29:08;;;;;;;15.93;10.68;;;;;;;-144.61;100.00;62523.38;5093142;28;20206;-70
2023/07/07 02:31:35;;;;;;;16.45;9.70;;;;;;;-144.61;100.00;62523.38;5101363;28;20194;-70
2023/07/07 02:34:02;;;;;;;16.65;9.68;;;;;;;-144.61;100.00;62523.38;5100117;28;20641;-70
2023/07/07 02:36:30;;;;;;;19.52;10.60;;;;;;;-144.61;100.00;62523.38;5089334;28;20653;-70
2023/07/07 02:38:57;;;;;;;17.23;11.80;;;;;;;-144.61;100.00;62523.38;5101564;28;20205;-72
2023/07/07 02:41:23;;;;;;;17.67;10.77;;;;;;;-144.61;100.00;62523.38;5104353;28;20197;-70
2023/07/07 02:43:50;;;;;;;17.25;10.25;;;;;;;-144.61;100.00;62523.38;5099120;28;20739;-72
2023/07/07 02:46:17;;;;;;;14.90;10.23;;;;;;;-144.61;100.00;62523.38;5096498;28;20615;-71
2023/07/07 02:48:44;;;;;;;16.40;10.77;;;;;;;-144.61;100.00;62523.38;5102046;28;20258;-72
2023/07/07 02:51:10;;;;;;;16.42;10.85;;;;;;;-144.61;100.00;62523.38;5103906;28;20206;-72
2023/07/07 02:53:38;;;;;;;14.43;9.50;;;;;;;-144.61;100.00;62523.38;5097660;28;20551;-72
2023/07/07 02:56:06;;;;;;;18.52;10.93;;;;;;;-144.61;100.00;62523.38;5096742;28;20226;-72
2023/07/07 02:58:33;;;;;;;14.27;10.13;;;;;;;-144.61;100.00;62523.38;5101211;28;20321;-72
2023/07/07 03:01:10;;;;;;;16.77;10.73;;;;;;;-144.61;100.00;62523.38;5092466;28;20198;-72
2023/07/07 03:03:39;;;;;;;16.52;9.52;;;;;;;-144.61;100.00;62523.38;5099882;28;20285;-71
2023/07/07 03:06:07;;;;;;;19.95;10.55;;;;;;;-144.61;100.00;62523.38;5103423;28;20245;-71
2023/07/07 03:08:34;;;;;;;13.73;9.25;;;;;;;-144.61;100.00;62523.38;5089673;28;20226;-72
2023/07/07 03:11:06;;;;;;;19.33;11.43;;;;;;;-144.61;100.00;62523.38;5103616;28;20202;-72
2023/07/07 03:13:33;;;;;;;17.73;11.50;;;;;;;-144.61;100.00;62523.38;5102422;28;20236;-72
2023/07/07 03:15:59;;;;;;;17.17;10.23;;;;;;;-144.61;100.00;62523.38;5096365;28;20257;-71
2023/07/07 03:18:26;;;;;;;14.75;10.30;;;;;;;-144.61;100.00;62523.38;5097403;28;20202;-72
2023/07/07 03:20:53;;;;;;;15.15;10.70;;;;;;;-144.61;100.00;62523.38;5103413;28;20259;-72
2023/07/07 03:23:20;;;;;;;15.68;11.52;;;;;;;-144.61;100.00;62523.38;5102520;28;20204;-70
2023/07/07 03:25:46;;;;;;;14.75;10.43;;;;;;;-144.61;100.00;62523.38;5096165;28;20663;-72
2023/07/07 03:28:14;;;;;;;16.50;11.38;;;;;;;-144.61;100.00;62523.38;5096921;28;20230;-72
2023/07/07 03:30:41;;;;;;;16.83;11.63;;;;;;;-144.61;100.00;62523.38;5103360;28;20201;-72
2023/07/07 03:33:08;;;;;;;18.75;15.10;;;;;;;-144.61;100.00;62523.38;5102971;28;20586;-72
2023/07/07 03:35:35;;;;;;;17.35;14.23;;;;;;;-144.61;100.00;62523.38;5102853;28;20207;-72
2023/07/07 03:38:01;;;;;;;20.20;15.02;;;;;;;-144.61;100.00;62523.38;5103142;28;20254;-71
2023/07/07 03:40:28;;;;;;;19.73;14.65;;;;;;;-144.61;100.00;62523.38;5096520;28;20274;-72
2023/07/07 03:42:55;;;;;;;17.05;13.63;;;;;;;-144.61;100.00;62523.38;5095583;28;20260;-73
2023/07/07 03:45:24;;;;;;;18.88;13.70;;;;;;;-144.61;100.00;62523.38;5094605;28;20260;-72
2023/07/07 03:47:51;;;;;;;18.23;13.90;;;;;;;-144.61;100.00;62523.38;5096596;28;20282;-72
2023/07/07 03:50:18;;;;;;;18.92;14.38;;;;;;;-144.61;100.00;62523.38;5084460;28;20238;-73
2023/07/07 03:52:44;;;;;;;15.90;11.30;;;;;;;-144.61;100.00;62523.38;5096583;28;20199;-70
2023/07/07 03:55:11;;;;;;;16.33;13.77;;;;;;;-144.61;100.00;62523.38;5101698;28;20733;-72
2023/07/07 03:57:38;;;;;;;18.23;14.82;;;;;;;-144.61;100.00;62523.38;5103118;28;20206;-72
2023/07/07 04:00:06;;;;;;;17.77;14.07;;;;;;;-144.61;100.00;62523.38;5089589;28;20263;-70
2023/07/07 04:02:35;;;;;;;17.40;14.60;;;;;;;-144.61;100.00;62523.38;5102839;28;20239;-72
2023/07/07 04:05:02;;;;;;;16.52;14.38;;;;;;;-144.61;100.00;62523.38;5099875;28;20743;-72
2023/07/07 04:07:29;;;;;;;17.50;14.00;;;;;;;-144.61;100.00;62523.38;5099995;28;20226;-72
2023/07/07 04:09:55;;;;;;;16.25;13.90;;;;;;;-144.61;100.00;62523.38;5104373;28;20271;-72
2023/07/07 04:12:22;;;;;;;16.85;13.63;;;;;;;-144.61;100.00;62523.38;5106779;28;20613;-70
2023/07/07 04:14:49;;;;;;;17.52;13.85;;;;;;;-144.61;100.00;62523.38;5102710;28;20206;-70
2023/07/07 04:17:16;;;;;;;18.50;14.07;;;;;;;-144.61;100.00;62523.38;5096741;28;20198;-69
2023/07/07 04:19:44;;;;;;;15.45;13.43;;;;;;;-144.61;100.00;62523.38;5101858;28;20660;-72
2023/07/07 04:22:11;;;;;;;20.75;13.98;;;;;;;-144.61;100.00;62523.38;5079315;28;20713;-70
2023/07/07 04:24:38;;;;;;;16.30;13.70;;;;;;;-144.61;100.00;62523.38;5071474;28;20207;-69
2023/07/07 04:27:05;;;;;;;17.27;13.38;;;;;;;-144.61;100.00;62523.38;5091495;28;20595;-70
2023/07/07 04:29:32;;;;;;;16.15;13.77;;;;;;;-144.61;100.00;62523.38;5103012;28;20560;-70
2023/07/07 04:31:59;;;;;;;16.45;14.65;;;;;;;-144.61;100.00;62523.38;5106681;28;20202;-70
2023/07/07 04:34:26;;;;;;;16.13;14.00;;;;;;;-144.61;100.00;62523.38;5102915;28;20232;-70
2023/07/07 04:36:54;;;;;;;15.30;13.43;;;;;;;-144.61;100.00;62523.38;5099592;28;20202;-71
2023/07/07 04:39:21;;;;;;;16.85;14.20;;;;;;;-144.61;100.00;62523.38;5090991;28;20268;-71
2023/07/07 04:41:50;;;;;;;15.98;13.63;;;;;;;-144.61;100.00;62523.38;5099150;28;20263;-70
2023/07/07 04:44:17;;;;;;;15.55;13.27;;;;;;;-144.61;100.00;62523.38;5082966;28;20342;-70
2023/07/07 04:46:44;;;;;;;17.65;12.98;;;;;;;-144.61;100.00;62523.38;5092172;28;20248;-70
2023/07/07 04:49:11;;;;;;;18.17;14.63;;;;;;;-144.61;100.00;62523.38;5092424;28;20404;-71
2023/07/07 04:51:40;;;;;;;15.25;13.00;;;;;;;-144.61;100.00;62523.38;5105962;28;20202;-71
2023/07/07 04:54:12;;;;;;;20.10;14.23;;;;;;;-144.61;100.00;62523.38;5091756;28;20275;-71
2023/07/07 04:56:39;;;;;;;16.75;13.73;;;;;;;-144.61;100.00;62523.38;5091764;28;20206;-71
2023/07/07 04:59:06;;;;;;;17.30;14.45;;;;;;;-144.61;100.00;62523.38;5091839;28;20202;-71
2023/07/07 05:01:33;;;;;;;16.60;13.25;;;;;;;-144.61;100.00;62523.38;5078217;28;20206;-71
2023/07/07 05:04:02;;;;;;;16.65;13.73;;;;;;;-144.61;100.00;62523.38;5091675;28;20202;-71
2023/07/07 05:06:31;;;;;;;17.05;13.70;;;;;;;-144.61;100.00;62523.38;5091363;28;20702;-70
2023/07/07 05:08:58;;;;;;;17.52;14.45;;;;;;;-144.61;100.00;62523.38;5105008;28;20282;-71
2023/07/07 05:11:28;;;;;;;17.48;14.35;;;;;;;-144.61;100.00;62523.38;5091037;28;20194;-72
2023/07/07 05:13:55;;;;;;;20.60;14.75;;;;;;;-144.61;100.00;62523.38;5090583;28;20709;-72
2023/07/07 05:16:23;;;;;;;21.52;14.77;;;;;;;-144.61;100.00;62523.38;5090381;28;20202;-72
2023/07/07 05:18:50;;;;;;;20.75;15.05;;;;;;;-144.61;100.00;62523.38;5105388;28;20256;-72
2023/07/07 05:21:20;;;;;;;20.10;15.63;;;;;;;-144.61;100.00;62523.38;5091504;28;20252;-72
2023/07/07 05:23:47;;;;;;;19.02;14.82;;;;;;;-144.61;100.00;62523.38;5090639;28;20233;-71
2023/07/07 05:26:13;;;;;;;20.90;16.02;;;;;;;-144.61;100.00;62523.38;5089745;28;20195;-72
2023/07/07 05:28:42;;;;;;;22.67;16.63;;;;;;;-144.61;100.00;62523.38;5085880;28;20255;-72
2023/07/07 05:31:09;;;;;;;19.83;15.05;;;;;;;-144.61;100.00;62523.38;5081611;28;20604;-71
2023/07/07 05:33:38;;;;;;;20.67;16.10;;;;;;;-144.61;100.00;62523.38;5089029;28;20213;-72
2023/07/07 05:36:08;;;;;;;21.10;15.10;;;;;;;-144.61;100.00;62523.38;5080752;28;20206;-72
2023/07/07 05:38:35;;;;;;;20.13;15.20;;;;;;;-144.61;100.00;62523.38;5085453;28;20199;-72
2023/07/07 05:41:02;;;;;;;18.23;13.57;;;;;;;-144.61;100.00;62523.38;5093352;28;20588;-71
2023/07/07 05:43:28;;;;;;;18.02;14.05;;;;;;;-144.61;100.00;62523.38;5089842;28;20744;-71
2023/07/07 05:45:57;;;;;;;18.40;14.82;;;;;;;-144.61;100.00;62523.38;5089256;28;20248;-71
2023/07/07 05:48:24;;;;;;;16.13;14.10;;;;;;;-144.61;100.00;62523.38;5087131;28;20752;-71
2023/07/07 05:50:53;;;;;;;19.63;15.57;;;;;;;-144.61;100.00;62523.38;5090248;28;20210;-71
2023/07/07 05:53:19;;;;;;;19.63;15.50;;;;;;;-144.61;100.00;62523.38;5087077;28;20240;-71
2023/07/07 05:55:47;;;;;;;18.05;15.13;;;;;;;-144.61;100.00;62523.38;5089581;28;20218;-71
2023/07/07 05:58:15;;;;;;;20.10;14.98;;;;;;;-144.61;100.00;62523.38;5089338;28;20237;-72
2023/07/07 06:00:42;;;;;;;23.35;17.65;;;;;;;-144.61;100.00;62523.38;5089688;28;20633;-72
2023/07/07 06:03:10;;;;;;;21.95;16.33;;;;;;;-144.61;100.00;62523.38;5081810;28;20207;-71
2023/07/07 06:05:37;;;;;;;20.08;15.43;;;;;;;-144.61;100.00;62523.38;5083115;28;20202;-72
2023/07/07 06:08:05;;;;;;;18.50;15.57;;;;;;;-144.61;100.00;62523.38;5089595;28;20237;-71
2023/07/07 06:10:32;;;;;;;19.27;15.02;;;;;;;-144.61;100.00;62523.38;5089305;28;20206;-72
2023/07/07 06:13:03;;;;;;;17.33;14.02;;;;;;;-144.61;100.00;62523.38;5089965;28;20202;-71
2023/07/07 06:15:30;;;;;;;18.02;13.93;;;;;;;-144.61;100.00;62523.38;5090311;28;20202;-71
2023/07/07 06:17:57;;;;;;;17.20;14.75;;;;;;;-144.61;100.00;62523.38;5098624;28;20251;-73
2023/07/07 06:20:25;;;;;;;21.80;13.63;;;;;;;-144.61;100.00;62523.38;5079872;28;20232;-71
2023/07/07 06:22:54;;;;;;;18.45;14.48;;;;;;;-144.61;100.00;62523.38;5070197;28;20631;-71
2023/07/07 06:25:21;;;;;;;20.63;14.10;;;;;;;-144.61;100.00;62523.38;5085861;28;20206;-70
2023/07/07 06:27:47;;;;;;;16.27;14.23;;;;;;;-144.61;100.00;62523.38;5089627;28;20882;-71
2023/07/07 06:30:14;;;;;;;16.83;14.40;;;;;;;-144.61;100.00;62523.38;5089657;28;20210;-71
2023/07/07 06:32:41;;;;;;;16.63;13.25;;;;;;;-144.61;100.00;62523.38;5090084;28;20210;-70
2023/07/07 06:35:08;;;;;;;17.33;14.05;;;;;;;-144.61;100.00;62523.38;5089868;28;20202;-71
2023/07/07 06:37:36;;;;;;;16.98;12.88;;;;;;;-144.61;100.00;62523.38;5089477;28;20210;-70
2023/07/07 06:40:03;;;;;;;16.50;13.25;;;;;;;-144.61;100.00;62523.38;5100296;28;20207;-71
2023/07/07 06:42:30;;;;;;;18.15;13.82;;;;;;;-144.61;100.00;62523.38;5079327;28;20206;-70
2023/07/07 06:44:57;;;;;;;16.73;13.13;;;;;;;-144.61;100.00;62523.38;5088370;28;20630;-71
2023/07/07 06:47:24;;;;;;;18.40;13.15;;;;;;;-144.61;100.00;62523.38;5089096;28;20236;-71
2023/07/07 06:49:51;;;;;;;17.90;12.82;;;;;;;-144.61;100.00;62523.38;5072126;28;20317;-71
2023/07/07 06:52:17;;;;;;;17.77;11.85;;;;;;;-144.61;100.00;62523.38;5080003;28;20202;-71
2023/07/07 06:54:46;;;;;;;16.15;12.75;;;;;;;-144.61;100.00;62523.38;5093642;28;20718;-71
2023/07/07 06:57:12;;;;;;;18.10;13.30;;;;;;;-144.61;100.00;62523.38;5087804;28;20215;-70
2023/07/07 06:59:40;;;;;;;15.73;12.93;;;;;;;-144.61;100.00;62523.38;5082367;28;20676;-70
2023/07/07 07:02:11;;;;;;;17.63;13.20;;;;;;;-144.61;100.00;62523.38;5069383;28;20294;-71
2023/07/07 07:04:38;;;;;;;18.83;13.65;;;;;;;-144.61;100.00;62523.38;5087320;28;20202;-71
2023/07/07 07:07:05;;;;;;;14.93;11.57;;;;;;;-144.61;100.00;62523.38;5089395;28;20206;-71
2023/07/07 07:09:31;;;;;;;16.75;12.10;;;;;;;-144.61;100.00;62523.38;5088590;28;20627;-71
2023/07/07 07:12:00;;;;;;;16.27;12.45;;;;;;;-144.61;100.00;62523.38;5089037;28;20247;-70
2023/07/07 07:14:26;;;;;;;15.30;11.60;;;;;;;-144.61;100.00;62523.38;5089592;28;20202;-70
2023/07/07 07:16:53;;;;;;;19.75;12.98;;;;;;;-144.61;100.00;62523.38;5088933;28;20210;-70
2023/07/07 07:19:20;;;;;;;20.77;12.82;;;;;;;-144.61;100.00;62523.38;5089255;28;20283;-71
2023/07/07 07:21:46;;;;;;;16.10;12.13;;;;;;;-144.61;100.00;62523.38;5089350;28;20636;-71
2023/07/07 07:24:13;;;;;;;18.27;12.80;;;;;;;-144.61;100.00;62523.38;5088881;28;20214;-70
2023/07/07 07:26:40;;;;;;;11.43;8.40;;;;;;;-144.61;100.00;62523.38;5088710;28;20213;-71
2023/07/07 07:29:08;;;;;;;12.88;7.65;;;;;;;-144.61;100.00;62523.38;5096338;28;20231;-72
2023/07/07 07:31:35;;;;;;;12.48;6.47;;;;;;;-144.61;100.00;62523.38;5069090;28;20203;-73
2023/07/07 07:34:22;;;;;;;12.57;9.20;;;;;;;-144.61;100.00;62523.38;5069149;28;20265;-71
2023/07/07 07:36:48;;;;;;;26.13;12.60;;;;;;;-144.61;100.00;62523.38;5068655;28;20535;-71
2023/07/07 07:39:15;;;;;;;14.55;9.65;;;;;;;-144.61;100.00;62523.38;5079131;28;20294;-70
2023/07/07 07:41:43;;;;;;;16.00;10.73;;;;;;;-144.61;100.00;62523.38;5093190;28;20202;-72
2023/07/07 07:44:11;;;;;;;13.43;9.20;;;;;;;-144.61;100.00;62523.38;5092957;28;20258;-71
2023/07/07 07:46:38;;;;;;;16.60;12.35;;;;;;;-144.61;100.00;62523.38;5093020;28;20202;-71
2023/07/07 07:49:04;;;;;;;14.43;12.02;;;;;;;-144.61;100.00;62523.38;5091012;28;20279;-72
2023/07/07 07:51:31;;;;;;;17.25;12.20;;;;;;;-144.61;100.00;62523.38;5092379;28;20255;-72
2023/07/07 07:53:58;;;;;;;16.35;9.73;;;;;;;-144.61;100.00;62523.38;5089958;28;20271;-71
2023/07/07 07:56:25;;;;;;;15.68;12.45;;;;;;;-144.61;100.00;62523.38;5092348;28;20190;-72
2023/07/07 07:58:52;;;;;;;22.45;13.02;;;;;;;-144.61;100.00;62523.38;5091540;28;20615;-72
2023/07/07 08:01:20;;;;;;;14.98;11.88;;;;;;;-144.61;100.00;62523.38;5090575;28;20684;-72
2023/07/07 08:03:47;;;;;;;14.50;11.77;;;;;;;-144.61;100.00;62523.38;5092076;28;20673;-73
2023/07/07 08:06:13;;;;;;;17.20;12.82;;;;;;;-144.61;100.00;62523.38;5090036;28;20206;-73
2023/07/07 08:08:40;;;;;;;15.93;11.48;;;;;;;-144.61;100.00;62523.38;5088842;28;20693;-71
2023/07/07 08:11:07;;;;;;;16.35;12.68;;;;;;;-144.61;100.00;62523.38;5091638;28;20270;-72
2023/07/07 08:13:34;;;;;;;16.45;12.25;;;;;;;-144.61;100.00;62523.38;5092234;28;20210;-73
2023/07/07 08:16:00;;;;;;;20.95;12.77;;;;;;;-144.61;100.00;62523.38;5090204;28;20598;-72
2023/07/07 08:18:28;;;;;;;14.77;12.15;;;;;;;-144.61;100.00;62523.38;5089547;28;20207;-71
2023/07/07 08:20:55;;;;;;;14.52;10.80;;;;;;;-144.61;100.00;62523.38;5105291;28;20615;-72
2023/07/07 08:23:22;;;;;;;15.35;11.13;;;;;;;-144.61;100.00;62523.38;5090030;28;20202;-73
2023/07/07 08:25:51;;;;;;;14.63;11.18;;;;;;;-144.61;100.00;62523.38;5089125;28;20340;-72
2023/07/07 08:28:18;;;;;;;14.65;11.27;;;;;;;-144.61;100.00;62523.38;5091555;28;20205;-73
2023/07/07 08:30:45;;;;;;;14.32;10.93;;;;;;;-144.61;100.00;62523.38;5091043;28;20198;-72
2023/07/07 08:33:12;;;;;;;13.80;10.57;;;;;;;-144.61;100.00;62523.38;5089396;28;20207;-72
2023/07/07 08:35:40;;;;;;;14.65;11.02;;;;;;;-144.61;100.00;62523.38;5090004;28;20203;-73
2023/07/07 08:38:07;;;;;;;13.85;11.25;;;;;;;-144.61;100.00;62523.38;5090858;28;20263;-72
2023/07/07 08:40:42;;;;;;;13.20;10.70;;;;;;;-144.61;100.00;62523.38;5092211;28;20608;-72
2023/07/07 08:43:09;;;;;;;13.30;11.07;;;;;;;-144.61;100.00;62523.38;5089374;28;20190;-72
2023/07/07 08:45:36;;;;;;;13.88;10.30;;;;;;;-144.61;100.00;62523.38;5077216;28;20725;-72
2023/07/07 08:48:17;;;;;;;12.25;10.32;;;;;;;-144.61;100.00;62523.38;5087612;28;20260;-71
2023/07/07 08:50:50;;;;;;;13.02;10.98;;;;;;;-144.61;100.00;62523.38;5091770;28;20678;-72
2023/07/07 08:53:38;;;;;;;10.95;9.63;;;;;;;-144.61;100.00;62523.38;5091510;28;20251;-72
2023/07/07 08:56:12;;;;;;;13.32;9.93;;;;;;;-144.61;100.00;62523.38;5091609;28;20606;-72
2023/07/07 08:58:49;;;;;;;12.82;10.40;;;;;;;-144.61;100.00;62523.38;5091639;28;21058;-72
2023/07/07 09:01:28;;;;;;;12.73;10.23;;;;;;;-144.61;100.00;62523.38;5093493;28;20242;-71
2023/07/07 09:04:09;;;;;;;13.00;11.00;;;;;;;-144.61;100.00;62523.38;5082030;28;20202;-71
2023/07/07 09:06:58;;;;;;;13.63;10.43;;;;;;;-144.61;100.00;62523.38;5079012;28;20202;-73
2023/07/07 09:09:43;;;;;;;14.93;10.68;;;;;;;-144.61;100.00;62523.38;5090849;28;20222;-73
2023/07/07 09:12:21;;;;;;;13.70;9.82;;;;;;;-144.61;100.00;62523.38;5104775;28;20193;-71
2023/07/07 09:14:51;;;;;;;14.40;9.75;;;;;;;-144.61;100.00;62523.38;5100099;28;20705;-71
2023/07/07 09:17:24;;;;;;;13.25;9.82;;;;;;;-144.61;100.00;62523.38;5077440;28;20210;-71
2023/07/07 09:19:52;;;;;;;11.45;10.02;;;;;;;-144.61;100.00;62523.38;5070232;28;20589;-72
2023/07/07 09:22:27;;;;;;;12.05;10.25;;;;;;;-144.61;100.00;62523.38;5092508;28;20250;-71
2023/07/07 09:25:00;;;;;;;13.35;10.13;;;;;;;-144.61;100.00;62523.38;5085989;28;20206;-71
2023/07/07 09:27:33;;;;;;;11.18;9.25;;;;;;;-144.61;100.00;62523.38;5096672;28;20201;-72
2023/07/07 09:30:08;;;;;;;13.75;9.90;;;;;;;-144.61;100.00;62523.38;5082009;28;20288;-72
2023/07/07 09:32:34;;;;;;;11.15;9.05;;;;;;;-144.61;100.00;62523.38;5067636;28;20218;-72
2023/07/07 09:35:01;;;;;;;12.20;9.35;;;;;;;-144.61;100.00;62523.38;5084827;28;20255;-72
2023/07/07 09:37:38;;;;;;;11.05;9.30;;;;;;;-144.61;100.00;62523.38;5101117;28;20214;-72
2023/07/07 09:40:15;;;;;;;13.10;9.30;;;;;;;-144.61;100.00;62523.38;5103850;28;20205;-71
2023/07/07 09:42:54;;;;;;;13.63;10.77;;;;;;;-144.61;100.00;62523.38;5102491;28;20247;-72
2023/07/07 09:45:36;;;;;;;10.77;8.77;;;;;;;-144.61;100.00;62523.38;5078424;28;20278;-72
2023/07/07 09:48:15;;;;;;;10.70;8.57;;;;;;;-144.61;100.00;62523.38;5100029;28;20190;-72
2023/07/07 09:50:51;;;;;;;11.13;9.23;;;;;;;-144.61;100.00;62523.38;5069061;28;20227;-71
2023/07/07 09:53:24;;;;;;;11.73;9.25;;;;;;;-144.61;100.00;62523.38;5069546;28;20628;-73
2023/07/07 09:55:52;;;;;;;11.85;9.45;;;;;;;-144.61;100.00;62523.38;5083606;28;20214;-72
2023/07/07 09:58:24;;;;;;;12.95;9.60;;;;;;;-144.61;100.00;62523.38;5077527;28;20259;-73
2023/07/07 10:00:55;;;;;;;10.73;9.63;;;;;;;-144.61;100.00;62523.38;5090013;28;20198;-71
2023/07/07 10:03:26;;;;;;;13.27;9.85;;;;;;;-144.61;100.00;62523.38;5081377;28;20207;-72
2023/07/07 10:05:55;;;;;;;11.32;9.50;;;;;;;-144.61;100.00;62523.38;5100041;28;20193;-73
2023/07/07 10:08:23;;;;;;;13.18;10.02;;;;;;;-144.61;100.00;62523.38;5099360;28;20193;-73
2023/07/07 10:10:58;;;;;;;11.73;9.88;;;;;;;-144.61;100.00;62523.38;5096278;28;20780;-73
2023/07/07 10:13:25;;;;;;;11.98;9.80;;;;;;;-144.61;100.00;62523.38;5099924;28;20274;-73
2023/07/07 10:15:56;;;;;;;12.77;9.70;;;;;;;-144.61;100.00;62523.38;5103034;28;20723;-72
2023/07/07 10:18:25;;;;;;;12.32;9.35;;;;;;;-144.61;100.00;62523.38;5102286;28;20194;-72
2023/07/07 10:20:53;;;;;;;10.07;8.77;;;;;;;-144.61;100.00;62523.38;5096287;28;20209;-72
2023/07/07 10:23:19;;;;;;;13.40;9.20;;;;;;;-144.61;100.00;62523.38;5098034;28;20696;-72
2023/07/07 10:25:47;;;;;;;12.35;9.57;;;;;;;-144.61;100.00;62523.38;5070385;28;20271;-72
2023/07/07 10:28:17;;;;;;;12.43;8.95;;;;;;;-144.61;100.00;62523.38;5068309;28;20222;-72
2023/07/07 10:30:44;;;;;;;10.48;8.48;;;;;;;-144.61;100.00;62523.38;5068328;28;21046;-72
2023/07/07 10:33:13;;;;;;;10.93;8.50;;;;;;;-144.61;100.00;62523.38;5082099;28;20319;-72
2023/07/07 10:35:40;;;;;;;10.20;8.40;;;;;;;-144.61;100.00;62523.38;5102576;28;20202;-72
2023/07/07 10:38:10;;;;;;;13.48;8.77;;;;;;;-144.61;100.00;62523.38;5075069;28;20211;-73
2023/07/07 10:40:37;;;;;;;11.80;8.18;;;;;;;-144.61;100.00;62523.38;5081912;28;20205;-72
2023/07/07 10:43:07;;;;;;;11.45;8.13;;;;;;;-144.61;100.00;62523.38;5080856;28;20203;-73
2023/07/07 10:45:34;;;;;;;9.95;7.90;;;;;;;-144.61;100.00;62523.38;5088934;28;20198;-72
2023/07/07 10:48:00;;;;;;;11.52;8.70;;;;;;;-144.61;100.00;62523.38;5099952;28;20205;-73
2023/07/07 10:50:32;;;;;;;11.93;8.40;;;;;;;-144.61;100.00;62523.38;5078115;28;20234;-72
2023/07/07 10:53:15;;;;;;;11.55;8.65;;;;;;;-144.61;100.00;62523.38;5099308;28;20578;-71
2023/07/07 10:55:58;;;;;;;9.07;7.93;;;;;;;-144.61;100.00;62523.38;5081317;28;20604;-72
2023/07/07 10:58:38;;;;;;;11.70;8.85;;;;;;;-144.61;100.00;62523.38;5084602;28;20190;-72
2023/07/07 11:01:13;;;;;;;11.23;8.85;;;;;;;-144.61;100.00;62523.38;5089141;28;20221;-72
2023/07/07 11:03:57;;;;;;;9.75;8.55;;;;;;;-144.61;100.00;62523.38;5082329;28;20197;-72
2023/07/07 11:06:31;;;;;;;11.38;8.80;;;;;;;-144.61;100.00;62523.38;5084603;28;20206;-73